Time;durP1;ratioP1;P1;durP2;ratioP2;P2;SDS_P1;SDS_P2;PMS_P1;PMS_P2;Temp;Humidity;BMP_temperature;BMP_pressure;BME280_temperature;BME280_humidity;BME280_pressure;Samples;Min_cycle;Max_cycle;Signal;HPM_P1;HPM_P2
2022/07/14 00:00:09;;;;;;;8.40;2.30;;;;;;;;;;5034753;28;20045;-86
2022/07/14 00:02:36;;;;;;;8.93;2.30;;;;;;;;;;5062746;28;20052;-86
2022/07/14 00:05:02;;;;;;;8.45;2.38;;;;;;;;;;5050922;28;20049;-87
2022/07/14 00:07:28;;;;;;;8.23;1.80;;;;;;;;;;5051140;28;20041;-86
2022/07/14 00:09:54;;;;;;;5.25;1.98;;;;;;;;;;5050901;28;20411;-85
2022/07/14 00:12:20;;;;;;;4.63;1.83;;;;;;;;;;5051145;28;20041;-86
2022/07/14 00:14:46;;;;;;;6.68;2.00;;;;;;;;;;5051162;28;20041;-86
2022/07/14 00:17:12;;;;;;;7.70;2.03;;;;;;;;;;5051617;28;20052;-86
2022/07/14 00:19:38;;;;;;;11.80;2.80;;;;;;;;;;5073563;28;20120;-86
2022/07/14 00:22:05;;;;;;;7.32;2.30;;;;;;;;;;5050944;28;20120;-85
2022/07/14 00:24:31;;;;;;;13.30;3.28;;;;;;;;;;5050746;28;20033;-86
2022/07/14 00:26:57;;;;;;;10.20;3.15;;;;;;;;;;5050779;28;20179;-85
2022/07/14 00:29:23;;;;;;;7.18;2.53;;;;;;;;;;5050714;28;20041;-85
2022/07/14 00:31:49;;;;;;;8.23;2.70;;;;;;;;;;5049236;28;20037;-86
2022/07/14 00:34:15;;;;;;;9.98;2.78;;;;;;;;;;5056764;28;20116;-85
2022/07/14 00:36:41;;;;;;;9.85;2.30;;;;;;;;;;5033408;28;20063;-76
2022/07/14 00:39:07;;;;;;;8.80;2.60;;;;;;;;;;5065409;28;20041;-76
2022/07/14 00:41:34;;;;;;;11.07;3.58;;;;;;;;;;5050350;28;20048;-76
2022/07/14 00:44:01;;;;;;;7.38;2.70;;;;;;;;;;5049751;28;20053;-75
2022/07/14 00:46:27;;;;;;;11.07;3.35;;;;;;;;;;5042145;28;20037;-75
2022/07/14 00:48:53;;;;;;;9.73;3.30;;;;;;;;;;5050448;28;20083;-76
2022/07/14 00:51:19;;;;;;;10.27;3.55;;;;;;;;;;5050324;28;20044;-75
2022/07/14 00:53:50;;;;;;;10.15;3.30;;;;;;;;;;5066447;28;20076;-75
2022/07/14 00:56:16;;;;;;;7.90;2.92;;;;;;;;;;5050744;28;20101;-76
2022/07/14 00:58:42;;;;;;;14.43;3.72;;;;;;;;;;5065120;28;20049;-75
2022/07/14 01:01:08;;;;;;;9.02;3.17;;;;;;;;;;5065292;28;20063;-76
2022/07/14 01:03:35;;;;;;;6.95;2.58;;;;;;;;;;5051153;28;20394;-86
2022/07/14 01:06:01;;;;;;;7.63;2.65;;;;;;;;;;5066688;28;20072;-85
2022/07/14 01:08:28;;;;;;;10.57;2.72;;;;;;;;;;5037119;28;20033;-86
2022/07/14 01:10:54;;;;;;;6.93;2.45;;;;;;;;;;5043423;28;20167;-85
2022/07/14 01:13:20;;;;;;;7.97;2.83;;;;;;;;;;5053486;28;20033;-86
2022/07/14 01:15:46;;;;;;;9.75;3.45;;;;;;;;;;5053266;28;20072;-75
2022/07/14 01:18:12;;;;;;;10.10;3.40;;;;;;;;;;5053194;28;20044;-75
2022/07/14 01:20:38;;;;;;;10.63;4.22;;;;;;;;;;5053145;28;20114;-75
2022/07/14 01:23:04;;;;;;;12.35;3.97;;;;;;;;;;5068496;28;20532;-75
2022/07/14 01:25:31;;;;;;;9.90;3.88;;;;;;;;;;5053472;28;20055;-75
2022/07/14 01:27:57;;;;;;;9.82;3.20;;;;;;;;;;5053595;28;20072;-76
2022/07/14 01:30:23;;;;;;;8.43;3.55;;;;;;;;;;5053133;28;20072;-76
2022/07/14 01:32:49;;;;;;;9.63;3.47;;;;;;;;;;5052871;28;20049;-76
2022/07/14 01:35:15;;;;;;;9.48;3.30;;;;;;;;;;5068127;28;20351;-76
2022/07/14 01:37:42;;;;;;;7.15;3.22;;;;;;;;;;5053350;28;20520;-75
2022/07/14 01:40:08;;;;;;;11.73;4.25;;;;;;;;;;5060714;28;20044;-86
2022/07/14 01:42:34;;;;;;;10.52;4.32;;;;;;;;;;5069443;28;20044;-76
2022/07/14 01:45:00;;;;;;;9.57;3.80;;;;;;;;;;5069349;28;20053;-76
2022/07/14 01:47:26;;;;;;;10.93;3.83;;;;;;;;;;5051861;28;20048;-87
2022/07/14 01:49:52;;;;;;;9.68;3.95;;;;;;;;;;5052383;28;20040;-76
2022/07/14 01:52:18;;;;;;;8.93;3.90;;;;;;;;;;5069775;28;20068;-75
2022/07/14 01:54:45;;;;;;;11.98;4.75;;;;;;;;;;5052876;28;20461;-75
2022/07/14 01:57:12;;;;;;;9.73;4.50;;;;;;;;;;5043564;28;20049;-76
2022/07/14 01:59:38;;;;;;;9.48;3.88;;;;;;;;;;5069647;28;20501;-87
2022/07/14 02:02:04;;;;;;;9.38;3.83;;;;;;;;;;5047530;28;20055;-87
2022/07/14 02:04:30;;;;;;;9.88;3.80;;;;;;;;;;5035602;28;20052;-87
2022/07/14 02:06:57;;;;;;;10.02;3.83;;;;;;;;;;5035996;28;20145;-86
2022/07/14 02:12:10;;;;;;;8.75;3.80;;;;;;;;;;5040078;28;20128;-87
2022/07/14 02:12:12;;;;;;;13.63;4.07;;;;;;;;;;5050033;28;20037;-87
2022/07/14 02:14:38;;;;;;;9.55;4.53;;;;;;;;;;5069625;28;20063;-87
2022/07/14 02:17:04;;;;;;;8.73;3.70;;;;;;;;;;5052403;28;20091;-75
2022/07/14 02:19:30;;;;;;;8.35;3.42;;;;;;;;;;5052158;28;20041;-75
2022/07/14 02:21:56;;;;;;;10.73;4.43;;;;;;;;;;5050979;28;20400;-75
2022/07/14 02:24:23;;;;;;;11.07;4.45;;;;;;;;;;5052256;28;20047;-75
2022/07/14 02:26:50;;;;;;;8.80;4.28;;;;;;;;;;5053003;28;20040;-87
2022/07/14 02:29:16;;;;;;;11.85;4.25;;;;;;;;;;5053290;28;20504;-87
2022/07/14 02:31:44;;;;;;;8.27;4.30;;;;;;;;;;5052868;28;20037;-87
2022/07/14 02:34:11;;;;;;;12.68;4.93;;;;;;;;;;5027879;28;20079;-87
2022/07/14 02:36:38;;;;;;;11.52;4.70;;;;;;;;;;5066931;28;20045;-86
2022/07/14 02:39:04;;;;;;;9.73;4.10;;;;;;;;;;5052512;28;20051;-86
2022/07/14 02:41:30;;;;;;;9.75;4.13;;;;;;;;;;5052502;28;20588;-75
2022/07/14 02:43:56;;;;;;;7.20;3.60;;;;;;;;;;5066667;28;20494;-75
2022/07/14 02:46:22;;;;;;;8.07;3.25;;;;;;;;;;5050491;28;20036;-75
2022/07/14 02:48:49;;;;;;;8.15;3.33;;;;;;;;;;5051549;28;20095;-75
2022/07/14 02:51:15;;;;;;;8.13;3.13;;;;;;;;;;5051750;28;20544;-74
2022/07/14 02:53:41;;;;;;;12.18;4.45;;;;;;;;;;5051495;28;20428;-87
2022/07/14 02:56:08;;;;;;;10.52;4.40;;;;;;;;;;5052086;28;20044;-87
2022/07/14 02:58:34;;;;;;;7.00;4.05;;;;;;;;;;5050138;28;20052;-87
2022/07/14 03:01:01;;;;;;;9.85;3.88;;;;;;;;;;5051561;28;20147;-87
2022/07/14 03:03:27;;;;;;;9.10;4.45;;;;;;;;;;5051165;28;20119;-87
2022/07/14 03:05:53;;;;;;;9.15;4.00;;;;;;;;;;5051409;28;20440;-87
2022/07/14 03:08:19;;;;;;;10.07;4.18;;;;;;;;;;5051644;28;20088;-75
2022/07/14 03:10:45;;;;;;;8.73;3.90;;;;;;;;;;5049038;28;20068;-75
2022/07/14 03:13:11;;;;;;;11.13;4.35;;;;;;;;;;5058641;28;20555;-75
2022/07/14 03:15:38;;;;;;;12.98;4.50;;;;;;;;;;5051034;28;20045;-75
2022/07/14 03:18:04;;;;;;;8.25;4.80;;;;;;;;;;5067657;28;20041;-75
2022/07/14 03:20:30;;;;;;;9.57;3.78;;;;;;;;;;5051166;28;20044;-75
2022/07/14 03:22:56;;;;;;;12.13;4.60;;;;;;;;;;5065978;28;20049;-74
2022/07/14 03:25:23;;;;;;;10.93;4.55;;;;;;;;;;5051007;28;20130;-75
2022/07/14 03:27:49;;;;;;;7.88;3.67;;;;;;;;;;5045874;28;20076;-87
2022/07/14 03:30:15;;;;;;;7.30;3.90;;;;;;;;;;5051044;28;20459;-87
2022/07/14 03:32:42;;;;;;;11.32;3.88;;;;;;;;;;5051157;28;20084;-87
2022/07/14 03:35:08;;;;;;;9.10;3.88;;;;;;;;;;5050454;28;20409;-75
2022/07/14 03:37:35;;;;;;;9.43;4.45;;;;;;;;;;5049545;28;20043;-75
2022/07/14 03:40:02;;;;;;;6.68;3.45;;;;;;;;;;5050890;28;20371;-75
2022/07/14 03:42:28;;;;;;;11.60;3.92;;;;;;;;;;5051022;28;20121;-75
2022/07/14 03:44:55;;;;;;;8.23;3.78;;;;;;;;;;5049992;28;20056;-75
2022/07/14 03:47:21;;;;;;;8.02;3.78;;;;;;;;;;5018502;28;20444;-75
2022/07/14 03:49:47;;;;;;;8.93;4.45;;;;;;;;;;5065635;28;20040;-75
2022/07/14 03:52:13;;;;;;;7.72;4.05;;;;;;;;;;5067384;28;20048;-75
2022/07/14 03:54:44;;;;;;;8.80;3.70;;;;;;;;;;5051031;28;20041;-87
2022/07/14 03:57:10;;;;;;;8.15;3.60;;;;;;;;;;5050591;28;20106;-87
2022/07/14 03:59:40;;;;;;;8.48;3.88;;;;;;;;;;5051444;28;20053;-91
2022/07/14 04:02:07;;;;;;;5.82;3.47;;;;;;;;;;5048759;28;20048;-89
2022/07/14 04:04:33;;;;;;;10.70;4.30;;;;;;;;;;5074413;28;20056;-89
2022/07/14 04:07:00;;;;;;;7.60;3.42;;;;;;;;;;5046221;28;20062;-89
2022/07/14 04:09:26;;;;;;;10.80;3.95;;;;;;;;;;5043909;28;20090;-89
2022/07/14 04:11:52;;;;;;;10.07;3.47;;;;;;;;;;5043839;28;20059;-88
2022/07/14 04:14:18;;;;;;;8.88;3.63;;;;;;;;;;5057691;28;20048;-89
2022/07/14 04:16:44;;;;;;;7.22;3.15;;;;;;;;;;5050313;28;20056;-89
2022/07/14 04:19:10;;;;;;;8.32;3.92;;;;;;;;;;5050404;28;20099;-89
2022/07/14 04:21:36;;;;;;;6.00;2.97;;;;;;;;;;5033848;28;20041;-90
2022/07/14 04:24:03;;;;;;;5.32;2.88;;;;;;;;;;5050288;28;20041;-88
2022/07/14 05:32:12;;;;;;;6.47;2.33;;;;;;;;;;4802814;22;20516;-75
2022/07/14 05:34:42;;;;;;;8.15;2.17;;;;;;;;;;5067982;28;20051;-74
2022/07/14 05:37:08;;;;;;;6.22;2.00;;;;;;;;;;5067886;28;20043;-75
2022/07/14 05:39:34;;;;;;;5.03;2.10;;;;;;;;;;5073007;28;20093;-75
2022/07/14 05:42:01;;;;;;;8.27;1.90;;;;;;;;;;5075099;28;20040;-75
2022/07/14 05:44:27;;;;;;;5.00;1.80;;;;;;;;;;5075271;28;20070;-75
2022/07/14 05:46:53;;;;;;;5.53;1.80;;;;;;;;;;5092914;28;20044;-74
2022/07/14 05:49:19;;;;;;;4.18;1.45;;;;;;;;;;5072008;28;20040;-74
2022/07/14 05:51:45;;;;;;;5.40;1.63;;;;;;;;;;5074628;28;20121;-75
2022/07/14 05:54:11;;;;;;;8.45;2.53;;;;;;;;;;5074313;28;20415;-74
2022/07/14 05:56:37;;;;;;;5.35;1.55;;;;;;;;;;5076215;28;20040;-75
2022/07/14 05:59:03;;;;;;;8.15;2.00;;;;;;;;;;5076321;28;20047;-74
2022/07/14 06:01:29;;;;;;;5.32;1.83;;;;;;;;;;5076016;28;20092;-75
2022/07/14 06:03:57;;;;;;;13.70;2.63;;;;;;;;;;5071639;28;20044;-75
2022/07/14 06:06:24;;;;;;;8.55;1.55;;;;;;;;;;5071561;28;20040;-75
2022/07/14 06:08:50;;;;;;;8.43;1.90;;;;;;;;;;5075914;28;20044;-75
2022/07/14 06:11:17;;;;;;;6.20;1.35;;;;;;;;;;5061702;28;20081;-75
2022/07/14 06:13:45;;;;;;;6.07;1.50;;;;;;;;;;5075222;28;20724;-75
2022/07/14 06:16:11;;;;;;;6.25;1.65;;;;;;;;;;5075570;28;20055;-74
2022/07/14 06:18:37;;;;;;;4.93;1.50;;;;;;;;;;5075891;28;20047;-75
2022/07/14 06:21:10;;;;;;;7.25;1.33;;;;;;;;;;5076202;28;20500;-76
2022/07/14 06:23:36;;;;;;;16.95;1.73;;;;;;;;;;5075336;28;20036;-76
2022/07/14 06:26:09;;;;;;;6.65;1.25;;;;;;;;;;5074836;28;20086;-75
2022/07/14 06:28:36;;;;;;;6.00;1.40;;;;;;;;;;5075501;28;20032;-75
2022/07/14 06:31:02;;;;;;;4.97;1.60;;;;;;;;;;5075038;28;20084;-74
2022/07/14 06:33:28;;;;;;;6.20;1.55;;;;;;;;;;5074934;28;20104;-73
2022/07/14 06:35:54;;;;;;;4.30;1.58;;;;;;;;;;5058374;28;20040;-74
2022/07/14 06:38:20;;;;;;;8.48;1.77;;;;;;;;;;5074975;28;20044;-75
2022/07/14 06:40:46;;;;;;;6.05;1.50;;;;;;;;;;5055508;28;20480;-75
2022/07/14 06:43:13;;;;;;;5.60;1.33;;;;;;;;;;5066746;28;20120;-75
2022/07/14 06:45:39;;;;;;;5.82;1.45;;;;;;;;;;5069645;28;20122;-75
2022/07/14 06:48:06;;;;;;;7.38;1.30;;;;;;;;;;5066818;28;20036;-75
2022/07/14 06:50:32;;;;;;;7.43;1.30;;;;;;;;;;5075033;28;20438;-75
2022/07/14 06:52:58;;;;;;;6.05;1.10;;;;;;;;;;5071975;28;20063;-75
2022/07/14 06:55:24;;;;;;;3.80;1.00;;;;;;;;;;5071385;28;20408;-76
2022/07/14 06:57:51;;;;;;;5.07;1.10;;;;;;;;;;5072487;28;20042;-77
2022/07/14 07:00:18;;;;;;;4.70;1.17;;;;;;;;;;5074502;28;20094;-77
2022/07/14 07:02:44;;;;;;;4.10;1.10;;;;;;;;;;5073876;28;20055;-77
2022/07/14 07:07:59;;;;;;;3.85;1.00;;;;;;;;;;5068167;28;20044;-77
2022/07/14 07:10:25;;;;;;;5.25;1.08;;;;;;;;;;5061381;28;20040;-75
2022/07/14 07:12:52;;;;;;;6.75;1.20;;;;;;;;;;5056045;28;20032;-75
2022/07/14 07:15:18;;;;;;;5.70;1.08;;;;;;;;;;5074399;28;20502;-75
2022/07/14 07:17:44;;;;;;;5.43;1.00;;;;;;;;;;5074052;28;20039;-73
2022/07/14 07:20:10;;;;;;;5.28;1.10;;;;;;;;;;5073764;28;20109;-76
2022/07/14 07:22:37;;;;;;;4.68;0.95;;;;;;;;;;5074094;28;20032;-76
2022/07/14 07:25:04;;;;;;;4.38;0.80;;;;;;;;;;5072764;28;20408;-74
2022/07/14 07:27:30;;;;;;;6.72;0.90;;;;;;;;;;5072954;28;20557;-75
2022/07/14 07:29:56;;;;;;;5.40;0.80;;;;;;;;;;5073665;28;20114;-74
2022/07/14 07:32:22;;;;;;;4.85;1.02;;;;;;;;;;5071822;28;20127;-75
2022/07/14 07:34:48;;;;;;;4.00;0.90;;;;;;;;;;5093797;28;20048;-75
2022/07/14 07:37:15;;;;;;;3.92;1.00;;;;;;;;;;5112779;28;20499;-74
2022/07/14 07:39:41;;;;;;;4.70;0.82;;;;;;;;;;5092823;28;20035;-74
2022/07/14 07:42:07;;;;;;;4.53;0.95;;;;;;;;;;5093825;28;20035;-75
2022/07/14 07:44:33;;;;;;;5.57;0.90;;;;;;;;;;5077229;28;20069;-75
2022/07/14 07:46:59;;;;;;;3.33;0.98;;;;;;;;;;5112001;28;20040;-76
2022/07/14 07:49:25;;;;;;;3.58;0.80;;;;;;;;;;5112125;28;20035;-77
2022/07/14 07:51:57;;;;;;;2.90;0.75;;;;;;;;;;5075877;28;20081;-76
2022/07/14 07:54:23;;;;;;;3.55;0.90;;;;;;;;;;5093739;28;20048;-75
2022/07/14 07:56:49;;;;;;;4.72;0.90;;;;;;;;;;5107962;28;20513;-76
2022/07/14 07:59:16;;;;;;;2.90;0.70;;;;;;;;;;5112007;28;20031;-76
2022/07/14 08:01:42;;;;;;;3.17;0.75;;;;;;;;;;5088578;28;20032;-76
2022/07/14 08:04:08;;;;;;;3.47;0.70;;;;;;;;;;5088815;28;20039;-76
2022/07/14 08:06:35;;;;;;;3.75;0.70;;;;;;;;;;5086813;28;20046;-75
2022/07/14 08:09:02;;;;;;;4.15;0.77;;;;;;;;;;5091096;28;20031;-76
2022/07/14 08:11:28;;;;;;;5.22;0.85;;;;;;;;;;5093735;28;20078;-76
2022/07/14 08:13:54;;;;;;;2.33;0.60;;;;;;;;;;5078756;28;20040;-76
2022/07/14 08:16:20;;;;;;;4.38;0.77;;;;;;;;;;5096111;28;20499;-76
2022/07/14 08:18:47;;;;;;;3.55;0.70;;;;;;;;;;5087410;27;20396;-75
2022/07/14 08:21:13;;;;;;;2.80;0.55;;;;;;;;;;5086763;28;20050;-76
2022/07/14 08:23:39;;;;;;;3.25;0.63;;;;;;;;;;5092368;28;20496;-73
2022/07/14 08:26:05;;;;;;;3.67;0.57;;;;;;;;;;5101367;28;20560;-75
2022/07/14 08:28:31;;;;;;;4.72;0.75;;;;;;;;;;5097475;28;20035;-73
2022/07/14 08:30:58;;;;;;;4.72;0.60;;;;;;;;;;5095702;28;20044;-74
2022/07/14 08:33:24;;;;;;;1.88;0.63;;;;;;;;;;5098248;28;20620;-73
2022/07/14 08:35:50;;;;;;;4.35;0.95;;;;;;;;;;5116591;28;20039;-73
2022/07/14 08:38:16;;;;;;;2.80;0.55;;;;;;;;;;5097660;28;20039;-74
2022/07/14 08:40:42;;;;;;;3.65;0.82;;;;;;;;;;5095550;28;20066;-74
2022/07/14 08:43:08;;;;;;;2.05;0.70;;;;;;;;;;5097569;28;20590;-73
2022/07/14 08:45:41;;;;;;;3.20;0.80;;;;;;;;;;5115833;28;20499;-72
2022/07/14 08:48:07;;;;;;;4.85;0.80;;;;;;;;;;5115766;28;20066;-74
2022/07/14 08:50:33;;;;;;;3.28;0.70;;;;;;;;;;5115849;28;20040;-76
2022/07/14 08:53:03;;;;;;;4.72;0.98;;;;;;;;;;5097710;28;20035;-75
2022/07/14 08:55:30;;;;;;;3.53;0.77;;;;;;;;;;5098502;28;20058;-79
2022/07/14 08:57:56;;;;;;;2.78;0.70;;;;;;;;;;5115514;28;20034;-76
2022/07/14 09:00:22;;;;;;;6.63;0.70;;;;;;;;;;5099193;28;20040;-78
2022/07/14 09:02:55;;;;;;;4.47;0.80;;;;;;;;;;5098954;28;20077;-79
2022/07/14 09:05:22;;;;;;;3.72;0.80;;;;;;;;;;5083755;28;20392;-78
2022/07/14 09:07:55;;;;;;;5.57;0.90;;;;;;;;;;5097967;28;20040;-75
2022/07/14 09:10:23;;;;;;;6.72;0.95;;;;;;;;;;5096983;28;20047;-79
2022/07/14 09:12:49;;;;;;;4.57;1.42;;;;;;;;;;5095371;28;20036;-76
2022/07/14 09:18:11;;;;;;;3.70;0.65;;;;;;;;;;5096573;28;20043;-74
2022/07/14 09:20:38;;;;;;;2.80;0.60;;;;;;;;;;5097672;28;20520;-76
2022/07/14 09:23:04;;;;;;;1.98;0.52;;;;;;;;;;5114881;28;20053;-77
2022/07/14 09:25:32;;;;;;;2.22;0.70;;;;;;;;;;5097253;28;20472;-76
2022/07/14 09:27:58;;;;;;;3.70;0.65;;;;;;;;;;5095980;28;20070;-75
2022/07/14 09:30:25;;;;;;;4.97;0.82;;;;;;;;;;5096795;28;20485;-76
2022/07/14 09:32:53;;;;;;;2.65;0.70;;;;;;;;;;5096228;28;20043;-76
2022/07/14 09:35:23;;;;;;;2.88;0.57;;;;;;;;;;5096083;28;20088;-78
2022/07/14 09:37:50;;;;;;;2.70;0.82;;;;;;;;;;5096323;28;20095;-77
2022/07/14 09:40:25;;;;;;;5.30;1.25;;;;;;;;;;5079387;28;20058;-76
2022/07/14 09:42:59;;;;;;;2.78;0.70;;;;;;;;;;5096522;28;20410;-76
2022/07/14 09:45:28;;;;;;;4.47;0.57;;;;;;;;;;5095627;28;20027;-73
2022/07/14 09:48:08;;;;;;;2.72;0.77;;;;;;;;;;5079589;28;20042;-72
2022/07/14 09:50:40;;;;;;;4.22;0.70;;;;;;;;;;5096873;28;20387;-72
2022/07/14 09:53:17;;;;;;;3.45;0.70;;;;;;;;;;5078670;28;20088;-73
2022/07/14 09:55:46;;;;;;;5.25;0.70;;;;;;;;;;5096434;28;20044;-73
2022/07/14 09:58:13;;;;;;;3.67;0.90;;;;;;;;;;5095893;28;20054;-73
2022/07/14 10:00:41;;;;;;;3.85;0.70;;;;;;;;;;5096482;28;20496;-72
2022/07/14 10:03:07;;;;;;;4.60;0.60;;;;;;;;;;5095719;28;20122;-73
2022/07/14 10:05:34;;;;;;;3.47;0.70;;;;;;;;;;5096115;28;20399;-76
2022/07/14 10:08:02;;;;;;;4.80;0.77;;;;;;;;;;5096418;28;20441;-75
2022/07/14 10:10:31;;;;;;;3.92;0.90;;;;;;;;;;5095090;28;20110;-73
2022/07/14 10:12:58;;;;;;;3.85;0.57;;;;;;;;;;5095952;28;20051;-74
2022/07/14 10:15:24;;;;;;;5.65;0.85;;;;;;;;;;5094658;28;20472;-80
2022/07/14 10:17:50;;;;;;;3.92;0.70;;;;;;;;;;5095613;28;20043;-75
2022/07/14 10:20:16;;;;;;;2.75;0.50;;;;;;;;;;5077821;28;20071;-75
2022/07/14 10:22:43;;;;;;;4.70;0.70;;;;;;;;;;5095796;28;20080;-75
2022/07/14 10:25:10;;;;;;;3.95;0.75;;;;;;;;;;5094778;28;20040;-75
2022/07/14 10:27:39;;;;;;;4.18;0.80;;;;;;;;;;5095848;28;20039;-76
2022/07/14 10:30:05;;;;;;;2.55;0.60;;;;;;;;;;5095012;28;20043;-75
2022/07/14 10:32:35;;;;;;;2.97;0.73;;;;;;;;;;5095449;28;20449;-78
2022/07/14 10:35:20;;;;;;;2.42;0.70;;;;;;;;;;5091777;28;20532;-76
2022/07/14 10:37:46;;;;;;;2.28;0.60;;;;;;;;;;5095598;28;20039;-75
2022/07/14 10:40:18;;;;;;;4.38;0.88;;;;;;;;;;5078065;28;20495;-75
2022/07/14 10:42:50;;;;;;;5.25;0.90;;;;;;;;;;5093008;28;20075;-76
2022/07/14 10:45:17;;;;;;;3.83;0.85;;;;;;;;;;5093149;28;20507;-76
2022/07/14 10:47:46;;;;;;;3.17;0.63;;;;;;;;;;5095359;28;20165;-75
2022/07/14 10:50:13;;;;;;;3.22;0.80;;;;;;;;;;5095471;28;20548;-76
2022/07/14 10:52:50;;;;;;;3.25;0.68;;;;;;;;;;5094803;28;20051;-75
2022/07/14 10:55:32;;;;;;;2.08;0.60;;;;;;;;;;5093668;28;20036;-75
2022/07/14 10:58:03;;;;;;;3.47;0.80;;;;;;;;;;5072418;28;20043;-75
2022/07/14 11:00:44;;;;;;;3.22;0.55;;;;;;;;;;5094548;28;20062;-76
2022/07/14 11:03:22;;;;;;;3.25;0.60;;;;;;;;;;5094526;28;20096;-74
2022/07/14 11:06:05;;;;;;;2.67;0.57;;;;;;;;;;5095010;28;20039;-76
2022/07/14 11:08:31;;;;;;;2.50;0.60;;;;;;;;;;5071559;28;20077;-74
2022/07/14 11:10:58;;;;;;;1.80;0.75;;;;;;;;;;5094868;28;20043;-76
2022/07/14 11:13:24;;;;;;;2.47;0.65;;;;;;;;;;5093924;28;20066;-74
2022/07/14 11:15:53;;;;;;;2.40;0.60;;;;;;;;;;5094819;28;20044;-74
2022/07/14 11:18:24;;;;;;;2.80;0.60;;;;;;;;;;5077384;28;20054;-74
2022/07/14 11:20:50;;;;;;;1.90;0.65;;;;;;;;;;5094774;28;20043;-76
2022/07/14 11:23:17;;;;;;;3.65;0.70;;;;;;;;;;5094304;28;20488;-75
2022/07/14 11:25:44;;;;;;;2.13;0.47;;;;;;;;;;5095548;28;20039;-81
2022/07/14 11:28:28;;;;;;;5.30;0.93;;;;;;;;;;5074833;28;20119;-84
2022/07/14 11:31:18;;;;;;;2.63;0.70;;;;;;;;;;5087430;28;20036;-80
2022/07/14 11:36:32;;;;;;;2.47;0.60;;;;;;;;;;5080826;28;20043;-74
2022/07/14 11:39:17;;;;;;;3.47;0.80;;;;;;;;;;5094262;28;20044;-81
2022/07/14 11:41:44;;;;;;;4.60;0.70;;;;;;;;;;5074541;28;20040;-75
2022/07/14 11:44:30;;;;;;;2.10;0.60;;;;;;;;;;5087659;28;20050;-73
2022/07/14 11:47:00;;;;;;;3.65;0.60;;;;;;;;;;5075879;28;20043;-75
2022/07/14 11:49:27;;;;;;;2.95;0.70;;;;;;;;;;5094052;28;20039;-74
2022/07/14 11:51:54;;;;;;;3.25;0.73;;;;;;;;;;5093425;28;20035;-76
2022/07/14 11:54:21;;;;;;;4.97;0.90;;;;;;;;;;5090123;28;20035;-76
2022/07/14 11:56:50;;;;;;;4.50;0.90;;;;;;;;;;5093208;28;20047;-74
2022/07/14 11:59:19;;;;;;;4.15;0.60;;;;;;;;;;5077953;28;20391;-74
2022/07/14 12:01:45;;;;;;;2.45;0.60;;;;;;;;;;5054102;28;20040;-75
2022/07/14 12:04:14;;;;;;;3.35;0.60;;;;;;;;;;5087448;28;20043;-75
2022/07/14 12:06:43;;;;;;;1.88;0.60;;;;;;;;;;5093573;28;22028;-74
2022/07/14 12:09:10;;;;;;;4.13;0.82;;;;;;;;;;5093605;28;20047;-76
2022/07/14 12:11:36;;;;;;;1.92;0.65;;;;;;;;;;5091208;28;20038;-74
2022/07/14 12:14:03;;;;;;;2.97;0.63;;;;;;;;;;5087599;28;20043;-74
2022/07/14 12:16:29;;;;;;;2.20;0.60;;;;;;;;;;5088598;28;20043;-75
2022/07/14 12:18:56;;;;;;;3.13;0.70;;;;;;;;;;5059917;28;20387;-74
2022/07/14 12:21:32;;;;;;;2.25;0.63;;;;;;;;;;5092636;28;20036;-76
2022/07/14 12:23:58;;;;;;;3.20;0.70;;;;;;;;;;5051995;28;20055;-88
2022/07/14 12:26:25;;;;;;;3.42;0.50;;;;;;;;;;5093009;28;20077;-83
2022/07/14 12:28:52;;;;;;;1.92;0.50;;;;;;;;;;5093197;28;20088;-82
2022/07/14 12:31:19;;;;;;;2.75;0.63;;;;;;;;;;5093403;28;20044;-82
2022/07/14 12:33:46;;;;;;;4.68;0.70;;;;;;;;;;5076564;28;20048;-83
2022/07/14 12:36:18;;;;;;;2.33;0.70;;;;;;;;;;5091695;28;20036;-83
2022/07/14 12:38:45;;;;;;;3.10;0.70;;;;;;;;;;5091686;28;20040;-80
2022/07/14 12:41:12;;;;;;;4.68;0.70;;;;;;;;;;5107363;28;20050;-75
2022/07/14 12:43:40;;;;;;;3.03;0.60;;;;;;;;;;5093208;28;20109;-76
2022/07/14 12:46:09;;;;;;;4.00;0.90;;;;;;;;;;5076755;28;20039;-75
2022/07/14 12:48:55;;;;;;;2.40;0.70;;;;;;;;;;5093228;28;20039;-75
2022/07/14 12:51:26;;;;;;;1.98;0.52;;;;;;;;;;5088666;28;20028;-73
2022/07/14 12:53:59;;;;;;;4.07;0.60;;;;;;;;;;5092875;28;20039;-75
2022/07/14 12:56:29;;;;;;;2.92;0.65;;;;;;;;;;5072753;28;20047;-74
2022/07/14 12:59:00;;;;;;;2.40;0.70;;;;;;;;;;5093237;28;20633;-75
2022/07/14 13:01:27;;;;;;;2.60;0.60;;;;;;;;;;5088241;28;20032;-75
2022/07/14 13:03:54;;;;;;;1.92;0.60;;;;;;;;;;5113886;28;20031;-70
2022/07/14 13:06:20;;;;;;;2.30;0.50;;;;;;;;;;5112281;28;20039;-70
2022/07/14 13:08:46;;;;;;;1.50;0.60;;;;;;;;;;5104932;28;20213;-70
2022/07/14 13:11:13;;;;;;;1.70;0.52;;;;;;;;;;5091961;28;20040;-69
2022/07/14 13:13:43;;;;;;;3.47;0.60;;;;;;;;;;5095731;28;20051;-70
2022/07/14 13:16:18;;;;;;;4.15;0.70;;;;;;;;;;5110174;28;20509;-70
2022/07/14 13:19:04;;;;;;;2.88;0.50;;;;;;;;;;5114384;28;20035;-69
2022/07/14 13:21:45;;;;;;;3.78;0.60;;;;;;;;;;5114457;28;20077;-69
2022/07/14 13:24:13;;;;;;;2.55;0.68;;;;;;;;;;5095895;28;20040;-70
2022/07/14 13:26:39;;;;;;;2.90;0.70;;;;;;;;;;5114205;28;20058;-70
2022/07/14 13:29:05;;;;;;;2.53;0.60;;;;;;;;;;5114525;28;20028;-70
2022/07/14 13:31:31;;;;;;;3.20;0.70;;;;;;;;;;5094039;28;20075;-69
2022/07/14 13:34:01;;;;;;;3.72;0.60;;;;;;;;;;5095783;28;20055;-70
2022/07/14 13:36:28;;;;;;;3.17;0.50;;;;;;;;;;5114176;28;20448;-70
2022/07/14 13:38:54;;;;;;;6.25;0.90;;;;;;;;;;5094537;28;20499;-70
2022/07/14 13:41:21;;;;;;;2.72;0.60;;;;;;;;;;5112810;28;20039;-69
2022/07/14 13:43:48;;;;;;;3.20;0.60;;;;;;;;;;5113765;28;20071;-70
2022/07/14 13:46:14;;;;;;;2.53;0.60;;;;;;;;;;5114460;28;20077;-69
2022/07/14 13:48:41;;;;;;;2.88;0.60;;;;;;;;;;5095671;28;20076;-70
2022/07/14 13:53:52;;;;;;;1.38;0.43;;;;;;;;;;5101397;28;20435;-70
2022/07/14 13:56:18;;;;;;;4.15;0.63;;;;;;;;;;5099224;28;20456;-70
2022/07/14 13:58:44;;;;;;;1.30;0.47;;;;;;;;;;5076206;28;20040;-70
2022/07/14 14:01:11;;;;;;;3.45;0.68;;;;;;;;;;5104725;28;20500;-69
2022/07/14 14:03:37;;;;;;;1.30;0.50;;;;;;;;;;5105768;28;20036;-70
2022/07/14 14:06:06;;;;;;;2.45;0.50;;;;;;;;;;5085069;28;20085;-69
2022/07/14 14:08:32;;;;;;;3.05;0.55;;;;;;;;;;5095488;28;20467;-69
2022/07/14 14:10:59;;;;;;;3.80;0.70;;;;;;;;;;5113855;28;20045;-69
2022/07/14 14:13:29;;;;;;;2.00;0.70;;;;;;;;;;5112339;28;20115;-69
2022/07/14 14:15:56;;;;;;;4.38;0.75;;;;;;;;;;5105952;28;20039;-69
2022/07/14 14:18:22;;;;;;;1.75;0.50;;;;;;;;;;5094409;28;20053;-69
2022/07/14 14:20:48;;;;;;;3.88;0.60;;;;;;;;;;5110699;28;20468;-69
2022/07/14 14:23:14;;;;;;;3.30;0.70;;;;;;;;;;5113575;28;20089;-69
2022/07/14 14:25:40;;;;;;;1.83;0.50;;;;;;;;;;5112025;28;20039;-70
2022/07/14 14:28:07;;;;;;;5.93;0.80;;;;;;;;;;5113721;28;20167;-68
2022/07/14 14:30:40;;;;;;;2.38;0.80;;;;;;;;;;5095405;28;20039;-68
2022/07/14 14:33:06;;;;;;;2.97;0.70;;;;;;;;;;5113391;28;20408;-68
2022/07/14 14:35:33;;;;;;;1.85;0.60;;;;;;;;;;5112966;28;20039;-69
2022/07/14 14:37:59;;;;;;;2.28;0.50;;;;;;;;;;5111967;28;20454;-69
2022/07/14 14:40:25;;;;;;;3.08;0.68;;;;;;;;;;5091412;28;20036;-69
2022/07/14 14:42:52;;;;;;;1.85;0.52;;;;;;;;;;5112903;28;20046;-70
2022/07/14 14:45:18;;;;;;;3.53;0.50;;;;;;;;;;5113156;28;20036;-69
2022/07/14 14:47:44;;;;;;;2.72;0.80;;;;;;;;;;5113039;28;20038;-69
2022/07/14 14:50:11;;;;;;;4.20;0.75;;;;;;;;;;5094292;28;20118;-69
2022/07/14 14:52:38;;;;;;;2.65;0.60;;;;;;;;;;5113321;28;20035;-69
2022/07/14 14:55:05;;;;;;;4.97;1.02;;;;;;;;;;5113289;28;20036;-69
2022/07/14 14:57:31;;;;;;;4.90;0.60;;;;;;;;;;5112773;28;20035;-70
2022/07/14 14:59:57;;;;;;;4.07;0.95;;;;;;;;;;5093826;28;20032;-69
2022/07/14 15:02:27;;;;;;;4.95;0.70;;;;;;;;;;5094288;28;20134;-69
2022/07/14 15:04:56;;;;;;;2.80;0.65;;;;;;;;;;5111742;28;20043;-68
2022/07/14 15:07:23;;;;;;;2.78;0.80;;;;;;;;;;5094405;28;20028;-69
2022/07/14 15:09:50;;;;;;;6.32;0.90;;;;;;;;;;5112195;28;20091;-70
2022/07/14 15:12:20;;;;;;;2.38;0.77;;;;;;;;;;5095170;28;20035;-70
2022/07/14 15:14:47;;;;;;;2.13;0.70;;;;;;;;;;5111903;28;20176;-69
2022/07/14 15:17:13;;;;;;;3.85;0.60;;;;;;;;;;5110487;28;20477;-69
2022/07/14 15:19:39;;;;;;;4.35;0.90;;;;;;;;;;5072532;28;20523;-70
2022/07/14 15:22:12;;;;;;;3.78;1.15;;;;;;;;;;5106797;28;20050;-69
2022/07/14 15:24:39;;;;;;;2.65;0.85;;;;;;;;;;5102976;28;20047;-68
2022/07/14 15:27:05;;;;;;;2.15;0.80;;;;;;;;;;5096760;28;21346;-69
2022/07/14 15:29:31;;;;;;;2.10;0.73;;;;;;;;;;5093606;28;20042;-68
2022/07/14 15:31:57;;;;;;;3.47;0.95;;;;;;;;;;5088931;28;20048;-69
2022/07/14 15:34:23;;;;;;;2.88;0.85;;;;;;;;;;5112202;28;20040;-71
2022/07/14 15:36:49;;;;;;;2.40;0.70;;;;;;;;;;5094272;28;20051;-68
2022/07/14 15:42:01;;;;;;;4.00;1.20;;;;;;;;;;5111313;28;20039;-68
2022/07/14 15:44:27;;;;;;;4.97;1.20;;;;;;;;;;5112196;28;20050;-67
2022/07/14 15:46:55;;;;;;;4.70;1.30;;;;;;;;;;5111394;28;20067;-68
2022/07/14 15:49:21;;;;;;;7.05;1.50;;;;;;;;;;5112491;28;20118;-67
2022/07/14 15:51:47;;;;;;;4.50;1.45;;;;;;;;;;5111492;28;20050;-67
2022/07/14 15:54:13;;;;;;;6.18;1.30;;;;;;;;;;5112020;28;20074;-67
2022/07/14 15:56:39;;;;;;;4.88;1.48;;;;;;;;;;5111371;28;20100;-68
2022/07/14 15:59:07;;;;;;;4.90;1.58;;;;;;;;;;5110791;28;20082;-68
2022/07/14 16:01:33;;;;;;;3.47;1.15;;;;;;;;;;5091206;28;20551;-68